sensor_id;sensor_type;location;lat;lon;timestamp;P1;durP1;ratioP1;P2;durP2;ratioP2
63087;SDS011;49173;43.164;27.786;2022-12-18T00:02:04;9.75;;;5.70;;
63087;SDS011;49173;43.164;27.786;2022-12-18T00:04:30;8.02;;;5.15;;
63087;SDS011;49173;43.164;27.786;2022-12-18T00:06:56;7.18;;;5.28;;
63087;SDS011;49173;43.164;27.786;2022-12-18T00:09:22;8.98;;;4.78;;
63087;SDS011;49173;43.164;27.786;2022-12-18T00:11:48;8.98;;;4.78;;
63087;SDS011;49173;43.164;27.786;2022-12-18T00:14:14;8.20;;;4.50;;
63087;SDS011;49173;43.164;27.786;2022-12-18T00:16:40;10.48;;;4.90;;
63087;SDS011;49173;43.164;27.786;2022-12-18T00:19:11;8.60;;;4.40;;
63087;SDS011;49173;43.164;27.786;2022-12-18T00:21:38;9.18;;;4.88;;
63087;SDS011;49173;43.164;27.786;2022-12-18T00:24:04;6.80;;;4.53;;
63087;SDS011;49173;43.164;27.786;2022-12-18T00:26:31;12.55;;;4.88;;
63087;SDS011;49173;43.164;27.786;2022-12-18T00:28:59;11.10;;;5.80;;
63087;SDS011;49173;43.164;27.786;2022-12-18T00:31:27;9.93;;;5.20;;
63087;SDS011;49173;43.164;27.786;2022-12-18T00:33:53;6.68;;;4.57;;
63087;SDS011;49173;43.164;27.786;2022-12-18T00:36:24;5.80;;;4.03;;
63087;SDS011;49173;43.164;27.786;2022-12-18T00:38:53;6.03;;;4.18;;
63087;SDS011;49173;43.164;27.786;2022-12-18T00:41:20;7.10;;;3.97;;
63087;SDS011;49173;43.164;27.786;2022-12-18T00:44:06;7.53;;;4.47;;
63087;SDS011;49173;43.164;27.786;2022-12-18T00:46:34;8.77;;;4.03;;
63087;SDS011;49173;43.164;27.786;2022-12-18T00:49:00;6.65;;;4.30;;
63087;SDS011;49173;43.164;27.786;2022-12-18T00:51:26;7.07;;;3.97;;
63087;SDS011;49173;43.164;27.786;2022-12-18T00:53:52;5.90;;;3.60;;
63087;SDS011;49173;43.164;27.786;2022-12-18T00:56:18;8.10;;;3.40;;
63087;SDS011;49173;43.164;27.786;2022-12-18T00:58:44;6.50;;;3.65;;
63087;SDS011;49173;43.164;27.786;2022-12-18T01:01:09;8.02;;;3.30;;
63087;SDS011;49173;43.164;27.786;2022-12-18T01:03:35;4.18;;;3.08;;
63087;SDS011;49173;43.164;27.786;2022-12-18T01:06:07;5.88;;;3.05;;
63087;SDS011;49173;43.164;27.786;2022-12-18T01:08:34;4.10;;;3.28;;
63087;SDS011;49173;43.164;27.786;2022-12-18T01:11:01;5.40;;;3.30;;
63087;SDS011;49173;43.164;27.786;2022-12-18T01:13:32;7.68;;;3.60;;
63087;SDS011;49173;43.164;27.786;2022-12-18T01:15:58;4.75;;;3.30;;
63087;SDS011;49173;43.164;27.786;2022-12-18T01:18:24;5.07;;;3.47;;
63087;SDS011;49173;43.164;27.786;2022-12-18T01:20:50;6.53;;;3.88;;
63087;SDS011;49173;43.164;27.786;2022-12-18T01:23:15;12.57;;;4.30;;
63087;SDS011;49173;43.164;27.786;2022-12-18T01:25:41;5.72;;;3.90;;
63087;SDS011;49173;43.164;27.786;2022-12-18T01:28:07;6.28;;;3.40;;
63087;SDS011;49173;43.164;27.786;2022-12-18T01:30:33;7.57;;;3.97;;
63087;SDS011;49173;43.164;27.786;2022-12-18T01:32:58;4.85;;;3.15;;
63087;SDS011;49173;43.164;27.786;2022-12-18T01:35:24;4.78;;;2.97;;
63087;SDS011;49173;43.164;27.786;2022-12-18T01:37:53;3.97;;;2.92;;
63087;SDS011;49173;43.164;27.786;2022-12-18T01:42:49;5.53;;;3.53;;
63087;SDS011;49173;43.164;27.786;2022-12-18T01:48:08;6.72;;;3.72;;
63087;SDS011;49173;43.164;27.786;2022-12-18T01:53:10;5.85;;;3.92;;
63087;SDS011;49173;43.164;27.786;2022-12-18T01:55:39;8.20;;;4.40;;
63087;SDS011;49173;43.164;27.786;2022-12-18T01:58:10;7.00;;;4.07;;
63087;SDS011;49173;43.164;27.786;2022-12-18T02:00:36;6.10;;;4.20;;
63087;SDS011;49173;43.164;27.786;2022-12-18T02:03:02;9.75;;;3.92;;
63087;SDS011;49173;43.164;27.786;2022-12-18T02:08:21;6.57;;;4.05;;
63087;SDS011;49173;43.164;27.786;2022-12-18T02:13:37;8.07;;;4.50;;
63087;SDS011;49173;43.164;27.786;2022-12-18T02:18:50;6.60;;;4.20;;
63087;SDS011;49173;43.164;27.786;2022-12-18T02:21:32;8.13;;;4.28;;
63087;SDS011;49173;43.164;27.786;2022-12-18T02:26:55;8.02;;;3.45;;
63087;SDS011;49173;43.164;27.786;2022-12-18T02:29:26;6.45;;;3.53;;
63087;SDS011;49173;43.164;27.786;2022-12-18T02:31:59;5.18;;;3.33;;
63087;SDS011;49173;43.164;27.786;2022-12-18T02:34:28;5.85;;;3.47;;
63087;SDS011;49173;43.164;27.786;2022-12-18T02:36:57;6.45;;;3.95;;
63087;SDS011;49173;43.164;27.786;2022-12-18T02:39:25;7.43;;;3.88;;
63087;SDS011;49173;43.164;27.786;2022-12-18T02:41:54;5.00;;;3.53;;
63087;SDS011;49173;43.164;27.786;2022-12-18T02:44:20;6.45;;;3.70;;
63087;SDS011;49173;43.164;27.786;2022-12-18T02:46:46;6.18;;;3.90;;
63087;SDS011;49173;43.164;27.786;2022-12-18T02:52:01;6.03;;;4.00;;
63087;SDS011;49173;43.164;27.786;2022-12-18T02:54:32;5.40;;;4.07;;
63087;SDS011;49173;43.164;27.786;2022-12-18T03:00:28;7.00;;;4.22;;
63087;SDS011;49173;43.164;27.786;2022-12-18T03:03:05;8.15;;;4.50;;
63087;SDS011;49173;43.164;27.786;2022-12-18T03:08:27;11.00;;;4.13;;
63087;SDS011;49173;43.164;27.786;2022-12-18T03:11:06;8.55;;;4.13;;
63087;SDS011;49173;43.164;27.786;2022-12-18T03:13:43;4.85;;;3.55;;
63087;SDS011;49173;43.164;27.786;2022-12-18T03:16:18;6.72;;;4.15;;
63087;SDS011;49173;43.164;27.786;2022-12-18T03:18:53;7.15;;;4.13;;
63087;SDS011;49173;43.164;27.786;2022-12-18T03:21:25;6.00;;;4.18;;
63087;SDS011;49173;43.164;27.786;2022-12-18T03:23:57;6.70;;;4.30;;
63087;SDS011;49173;43.164;27.786;2022-12-18T03:26:24;5.18;;;3.80;;
63087;SDS011;49173;43.164;27.786;2022-12-18T03:28:53;6.85;;;4.22;;
63087;SDS011;49173;43.164;27.786;2022-12-18T03:31:27;6.68;;;4.00;;
63087;SDS011;49173;43.164;27.786;2022-12-18T03:33:59;6.47;;;4.15;;
63087;SDS011;49173;43.164;27.786;2022-12-18T03:36:29;6.90;;;4.32;;
63087;SDS011;49173;43.164;27.786;2022-12-18T03:38:55;6.63;;;4.50;;
63087;SDS011;49173;43.164;27.786;2022-12-18T03:41:31;6.05;;;4.20;;
63087;SDS011;49173;43.164;27.786;2022-12-18T03:52:53;5.22;;;3.67;;
63087;SDS011;49173;43.164;27.786;2022-12-18T03:55:38;4.80;;;3.25;;
63087;SDS011;49173;43.164;27.786;2022-12-18T03:58:05;10.88;;;3.50;;
63087;SDS011;49173;43.164;27.786;2022-12-18T04:00:34;8.60;;;3.67;;
63087;SDS011;49173;43.164;27.786;2022-12-18T04:03:00;7.80;;;3.72;;
63087;SDS011;49173;43.164;27.786;2022-12-18T04:05:28;6.75;;;4.38;;
63087;SDS011;49173;43.164;27.786;2022-12-18T04:07:57;6.97;;;4.75;;
63087;SDS011;49173;43.164;27.786;2022-12-18T04:10:23;10.70;;;6.22;;
63087;SDS011;49173;43.164;27.786;2022-12-18T04:12:49;7.13;;;4.75;;
63087;SDS011;49173;43.164;27.786;2022-12-18T04:15:14;7.25;;;4.90;;
63087;SDS011;49173;43.164;27.786;2022-12-18T04:17:43;5.43;;;4.10;;
63087;SDS011;49173;43.164;27.786;2022-12-18T04:20:13;6.88;;;4.72;;
63087;SDS011;49173;43.164;27.786;2022-12-18T04:22:39;7.32;;;4.20;;
63087;SDS011;49173;43.164;27.786;2022-12-18T04:25:05;6.68;;;4.60;;
63087;SDS011;49173;43.164;27.786;2022-12-18T04:27:31;8.05;;;4.90;;
63087;SDS011;49173;43.164;27.786;2022-12-18T04:29:57;7.38;;;4.38;;
63087;SDS011;49173;43.164;27.786;2022-12-18T04:32:22;9.45;;;4.60;;
63087;SDS011;49173;43.164;27.786;2022-12-18T04:34:48;7.93;;;4.78;;
63087;SDS011;49173;43.164;27.786;2022-12-18T04:37:14;9.32;;;5.28;;
63087;SDS011;49173;43.164;27.786;2022-12-18T04:39:40;8.27;;;4.68;;
63087;SDS011;49173;43.164;27.786;2022-12-18T04:42:05;6.85;;;4.55;;
63087;SDS011;49173;43.164;27.786;2022-12-18T04:44:31;7.65;;;5.25;;
63087;SDS011;49173;43.164;27.786;2022-12-18T04:46:57;6.90;;;5.20;;
63087;SDS011;49173;43.164;27.786;2022-12-18T04:49:22;8.15;;;5.93;;
63087;SDS011;49173;43.164;27.786;2022-12-18T04:51:48;16.58;;;6.13;;
63087;SDS011;49173;43.164;27.786;2022-12-18T04:54:14;6.63;;;5.03;;
63087;SDS011;49173;43.164;27.786;2022-12-18T04:56:40;15.48;;;11.48;;
63087;SDS011;49173;43.164;27.786;2022-12-18T04:59:05;8.30;;;6.07;;
63087;SDS011;49173;43.164;27.786;2022-12-18T05:01:31;9.60;;;6.78;;
63087;SDS011;49173;43.164;27.786;2022-12-18T05:03:57;8.23;;;6.22;;
63087;SDS011;49173;43.164;27.786;2022-12-18T05:06:22;8.75;;;6.40;;
63087;SDS011;49173;43.164;27.786;2022-12-18T05:08:48;12.35;;;7.90;;
63087;SDS011;49173;43.164;27.786;2022-12-18T05:11:14;10.40;;;6.88;;
63087;SDS011;49173;43.164;27.786;2022-12-18T05:13:41;14.82;;;7.03;;
63087;SDS011;49173;43.164;27.786;2022-12-18T05:16:08;8.98;;;6.18;;
63087;SDS011;49173;43.164;27.786;2022-12-18T05:18:34;9.65;;;6.10;;
63087;SDS011;49173;43.164;27.786;2022-12-18T05:20:59;11.05;;;7.13;;
63087;SDS011;49173;43.164;27.786;2022-12-18T05:23:26;11.90;;;6.10;;
63087;SDS011;49173;43.164;27.786;2022-12-18T05:28:19;9.35;;;5.97;;
63087;SDS011;49173;43.164;27.786;2022-12-18T05:30:56;11.80;;;6.97;;
63087;SDS011;49173;43.164;27.786;2022-12-18T05:33:24;9.10;;;6.25;;
63087;SDS011;49173;43.164;27.786;2022-12-18T05:35:55;10.18;;;6.95;;
63087;SDS011;49173;43.164;27.786;2022-12-18T05:38:23;11.60;;;6.60;;
63087;SDS011;49173;43.164;27.786;2022-12-18T05:40:50;11.15;;;7.60;;
63087;SDS011;49173;43.164;27.786;2022-12-18T05:43:17;9.55;;;7.05;;
63087;SDS011;49173;43.164;27.786;2022-12-18T05:45:44;12.02;;;7.97;;
63087;SDS011;49173;43.164;27.786;2022-12-18T05:48:10;10.70;;;7.47;;
63087;SDS011;49173;43.164;27.786;2022-12-18T05:50:37;14.35;;;9.27;;
63087;SDS011;49173;43.164;27.786;2022-12-18T05:53:04;15.00;;;9.05;;
63087;SDS011;49173;43.164;27.786;2022-12-18T05:55:33;13.13;;;8.60;;
63087;SDS011;49173;43.164;27.786;2022-12-18T05:58:00;15.30;;;9.07;;
63087;SDS011;49173;43.164;27.786;2022-12-18T06:00:27;13.23;;;8.40;;
63087;SDS011;49173;43.164;27.786;2022-12-18T06:02:52;14.27;;;8.80;;
63087;SDS011;49173;43.164;27.786;2022-12-18T06:05:18;15.50;;;9.25;;
63087;SDS011;49173;43.164;27.786;2022-12-18T06:07:44;14.35;;;9.52;;
63087;SDS011;49173;43.164;27.786;2022-12-18T06:10:09;14.77;;;8.75;;
63087;SDS011;49173;43.164;27.786;2022-12-18T06:12:36;17.58;;;9.32;;
63087;SDS011;49173;43.164;27.786;2022-12-18T06:15:03;16.77;;;11.43;;
63087;SDS011;49173;43.164;27.786;2022-12-18T06:17:29;18.13;;;11.77;;
63087;SDS011;49173;43.164;27.786;2022-12-18T06:20:05;26.00;;;15.25;;
63087;SDS011;49173;43.164;27.786;2022-12-18T06:25:23;19.30;;;11.57;;
63087;SDS011;49173;43.164;27.786;2022-12-18T06:27:50;18.52;;;12.10;;
63087;SDS011;49173;43.164;27.786;2022-12-18T06:30:16;26.38;;;15.77;;
63087;SDS011;49173;43.164;27.786;2022-12-18T06:32:42;21.85;;;14.05;;
63087;SDS011;49173;43.164;27.786;2022-12-18T06:35:08;19.52;;;11.70;;
63087;SDS011;49173;43.164;27.786;2022-12-18T06:37:34;18.67;;;10.93;;
63087;SDS011;49173;43.164;27.786;2022-12-18T06:40:00;20.42;;;13.48;;
63087;SDS011;49173;43.164;27.786;2022-12-18T06:42:26;18.92;;;12.18;;
63087;SDS011;49173;43.164;27.786;2022-12-18T06:44:52;22.17;;;13.50;;
63087;SDS011;49173;43.164;27.786;2022-12-18T06:47:18;17.45;;;10.73;;
63087;SDS011;49173;43.164;27.786;2022-12-18T06:49:43;16.33;;;10.60;;
63087;SDS011;49173;43.164;27.786;2022-12-18T06:52:09;18.77;;;11.30;;
63087;SDS011;49173;43.164;27.786;2022-12-18T06:54:35;18.25;;;10.40;;
63087;SDS011;49173;43.164;27.786;2022-12-18T06:57:01;18.60;;;11.02;;
63087;SDS011;49173;43.164;27.786;2022-12-18T06:59:29;22.30;;;12.38;;
63087;SDS011;49173;43.164;27.786;2022-12-18T07:01:55;33.40;;;18.42;;
63087;SDS011;49173;43.164;27.786;2022-12-18T07:04:21;29.45;;;18.75;;
63087;SDS011;49173;43.164;27.786;2022-12-18T07:06:46;19.60;;;11.55;;
63087;SDS011;49173;43.164;27.786;2022-12-18T07:09:12;21.05;;;13.57;;
63087;SDS011;49173;43.164;27.786;2022-12-18T07:11:38;22.33;;;13.57;;
63087;SDS011;49173;43.164;27.786;2022-12-18T07:14:03;21.60;;;12.77;;
63087;SDS011;49173;43.164;27.786;2022-12-18T07:16:29;19.45;;;12.32;;
63087;SDS011;49173;43.164;27.786;2022-12-18T07:18:55;18.27;;;11.18;;
63087;SDS011;49173;43.164;27.786;2022-12-18T07:21:21;22.27;;;13.10;;
63087;SDS011;49173;43.164;27.786;2022-12-18T07:23:47;18.90;;;12.00;;
63087;SDS011;49173;43.164;27.786;2022-12-18T07:26:21;22.10;;;14.20;;
63087;SDS011;49173;43.164;27.786;2022-12-18T07:28:47;25.27;;;15.93;;
63087;SDS011;49173;43.164;27.786;2022-12-18T07:31:14;20.83;;;14.05;;
63087;SDS011;49173;43.164;27.786;2022-12-18T07:33:43;21.60;;;14.27;;
63087;SDS011;49173;43.164;27.786;2022-12-18T07:36:09;19.45;;;12.35;;
63087;SDS011;49173;43.164;27.786;2022-12-18T07:38:35;19.48;;;12.98;;
63087;SDS011;49173;43.164;27.786;2022-12-18T07:41:06;18.20;;;11.45;;
63087;SDS011;49173;43.164;27.786;2022-12-18T07:43:33;22.88;;;12.98;;
63087;SDS011;49173;43.164;27.786;2022-12-18T07:46:00;20.65;;;13.40;;
63087;SDS011;49173;43.164;27.786;2022-12-18T07:48:25;23.00;;;14.07;;
63087;SDS011;49173;43.164;27.786;2022-12-18T07:50:51;25.17;;;13.23;;
63087;SDS011;49173;43.164;27.786;2022-12-18T07:53:17;21.92;;;12.70;;
63087;SDS011;49173;43.164;27.786;2022-12-18T07:55:43;21.50;;;13.00;;
63087;SDS011;49173;43.164;27.786;2022-12-18T07:58:08;20.95;;;12.85;;
63087;SDS011;49173;43.164;27.786;2022-12-18T08:00:34;21.35;;;13.85;;
63087;SDS011;49173;43.164;27.786;2022-12-18T08:03:01;21.40;;;13.10;;
63087;SDS011;49173;43.164;27.786;2022-12-18T08:05:27;21.55;;;12.85;;
63087;SDS011;49173;43.164;27.786;2022-12-18T08:07:53;21.95;;;13.85;;
63087;SDS011;49173;43.164;27.786;2022-12-18T08:10:19;30.50;;;17.60;;
63087;SDS011;49173;43.164;27.786;2022-12-18T08:12:54;31.17;;;18.05;;
63087;SDS011;49173;43.164;27.786;2022-12-18T08:15:20;39.55;;;20.92;;
63087;SDS011;49173;43.164;27.786;2022-12-18T08:17:49;31.23;;;18.98;;
63087;SDS011;49173;43.164;27.786;2022-12-18T08:20:16;31.98;;;18.73;;
63087;SDS011;49173;43.164;27.786;2022-12-18T08:22:43;22.33;;;14.75;;
63087;SDS011;49173;43.164;27.786;2022-12-18T08:25:09;28.95;;;16.67;;
63087;SDS011;49173;43.164;27.786;2022-12-18T08:27:35;31.70;;;17.92;;
63087;SDS011;49173;43.164;27.786;2022-12-18T08:30:02;35.65;;;19.55;;
63087;SDS011;49173;43.164;27.786;2022-12-18T08:32:32;29.83;;;15.90;;
63087;SDS011;49173;43.164;27.786;2022-12-18T08:34:58;24.58;;;14.45;;
63087;SDS011;49173;43.164;27.786;2022-12-18T08:37:24;23.35;;;13.63;;
63087;SDS011;49173;43.164;27.786;2022-12-18T08:39:50;23.88;;;14.15;;
63087;SDS011;49173;43.164;27.786;2022-12-18T08:45:31;27.02;;;15.13;;
63087;SDS011;49173;43.164;27.786;2022-12-18T08:47:57;22.67;;;14.20;;
63087;SDS011;49173;43.164;27.786;2022-12-18T08:50:23;22.35;;;15.13;;
63087;SDS011;49173;43.164;27.786;2022-12-18T08:52:48;24.50;;;15.32;;
63087;SDS011;49173;43.164;27.786;2022-12-18T08:55:14;22.70;;;15.32;;
63087;SDS011;49173;43.164;27.786;2022-12-18T08:57:40;23.17;;;15.23;;
63087;SDS011;49173;43.164;27.786;2022-12-18T09:00:06;23.60;;;15.23;;
63087;SDS011;49173;43.164;27.786;2022-12-18T09:02:34;24.88;;;15.30;;
63087;SDS011;49173;43.164;27.786;2022-12-18T09:04:59;25.52;;;14.50;;
63087;SDS011;49173;43.164;27.786;2022-12-18T09:07:25;25.80;;;15.60;;
63087;SDS011;49173;43.164;27.786;2022-12-18T09:09:54;27.83;;;16.52;;
63087;SDS011;49173;43.164;27.786;2022-12-18T09:12:20;26.20;;;16.50;;
63087;SDS011;49173;43.164;27.786;2022-12-18T09:14:46;25.45;;;16.73;;
63087;SDS011;49173;43.164;27.786;2022-12-18T09:17:11;23.75;;;15.40;;
63087;SDS011;49173;43.164;27.786;2022-12-18T09:19:37;22.50;;;15.02;;
63087;SDS011;49173;43.164;27.786;2022-12-18T09:22:03;30.63;;;20.25;;
63087;SDS011;49173;43.164;27.786;2022-12-18T09:24:28;29.70;;;17.77;;
63087;SDS011;49173;43.164;27.786;2022-12-18T09:26:56;30.63;;;17.42;;
63087;SDS011;49173;43.164;27.786;2022-12-18T09:29:22;25.27;;;16.10;;
63087;SDS011;49173;43.164;27.786;2022-12-18T09:31:48;24.88;;;15.65;;
63087;SDS011;49173;43.164;27.786;2022-12-18T09:34:15;24.05;;;15.82;;
63087;SDS011;49173;43.164;27.786;2022-12-18T09:36:42;25.70;;;15.68;;
63087;SDS011;49173;43.164;27.786;2022-12-18T09:39:08;27.40;;;18.58;;
63087;SDS011;49173;43.164;27.786;2022-12-18T09:44:35;27.38;;;17.83;;
63087;SDS011;49173;43.164;27.786;2022-12-18T09:47:33;24.98;;;15.65;;
63087;SDS011;49173;43.164;27.786;2022-12-18T09:50:04;25.90;;;15.88;;
63087;SDS011;49173;43.164;27.786;2022-12-18T09:52:43;26.10;;;16.42;;
63087;SDS011;49173;43.164;27.786;2022-12-18T09:55:32;28.23;;;17.38;;
63087;SDS011;49173;43.164;27.786;2022-12-18T10:00:39;27.60;;;16.20;;
63087;SDS011;49173;43.164;27.786;2022-12-18T10:03:09;29.75;;;17.50;;
63087;SDS011;49173;43.164;27.786;2022-12-18T10:05:49;29.15;;;16.90;;
63087;SDS011;49173;43.164;27.786;2022-12-18T10:11:13;34.20;;;19.73;;
63087;SDS011;49173;43.164;27.786;2022-12-18T10:16:59;29.15;;;18.40;;
63087;SDS011;49173;43.164;27.786;2022-12-18T10:19:36;26.63;;;16.60;;
63087;SDS011;49173;43.164;27.786;2022-12-18T10:22:21;27.48;;;16.85;;
63087;SDS011;49173;43.164;27.786;2022-12-18T10:24:53;30.70;;;16.88;;
63087;SDS011;49173;43.164;27.786;2022-12-18T10:27:27;25.88;;;16.45;;
63087;SDS011;49173;43.164;27.786;2022-12-18T10:29:54;30.98;;;19.02;;
63087;SDS011;49173;43.164;27.786;2022-12-18T10:32:21;31.23;;;18.08;;
63087;SDS011;49173;43.164;27.786;2022-12-18T10:34:52;25.27;;;16.38;;
63087;SDS011;49173;43.164;27.786;2022-12-18T10:37:21;25.95;;;17.38;;
63087;SDS011;49173;43.164;27.786;2022-12-18T10:42:33;21.52;;;14.80;;
63087;SDS011;49173;43.164;27.786;2022-12-18T10:45:03;27.27;;;15.90;;
63087;SDS011;49173;43.164;27.786;2022-12-18T10:47:35;25.38;;;15.68;;
63087;SDS011;49173;43.164;27.786;2022-12-18T10:50:01;27.45;;;16.92;;
63087;SDS011;49173;43.164;27.786;2022-12-18T10:52:27;25.23;;;16.27;;
63087;SDS011;49173;43.164;27.786;2022-12-18T10:55:01;25.10;;;16.08;;
63087;SDS011;49173;43.164;27.786;2022-12-18T10:59:57;24.98;;;16.15;;
63087;SDS011;49173;43.164;27.786;2022-12-18T11:02:26;22.25;;;14.75;;
63087;SDS011;49173;43.164;27.786;2022-12-18T11:04:53;22.08;;;14.48;;
63087;SDS011;49173;43.164;27.786;2022-12-18T11:07:19;22.85;;;14.45;;
63087;SDS011;49173;43.164;27.786;2022-12-18T11:09:45;22.48;;;14.15;;
63087;SDS011;49173;43.164;27.786;2022-12-18T11:12:25;25.77;;;15.05;;
63087;SDS011;49173;43.164;27.786;2022-12-18T11:14:54;23.05;;;15.35;;
63087;SDS011;49173;43.164;27.786;2022-12-18T11:19:55;24.42;;;15.38;;
63087;SDS011;49173;43.164;27.786;2022-12-18T11:22:26;27.67;;;16.83;;
63087;SDS011;49173;43.164;27.786;2022-12-18T11:24:58;23.87;;;14.43;;
63087;SDS011;49173;43.164;27.786;2022-12-18T11:27:36;28.77;;;16.55;;
63087;SDS011;49173;43.164;27.786;2022-12-18T11:30:20;24.67;;;14.90;;
63087;SDS011;49173;43.164;27.786;2022-12-18T11:35:37;24.63;;;15.18;;
63087;SDS011;49173;43.164;27.786;2022-12-18T11:38:10;23.80;;;14.65;;
63087;SDS011;49173;43.164;27.786;2022-12-18T11:40:42;23.15;;;14.90;;
63087;SDS011;49173;43.164;27.786;2022-12-18T11:45:54;25.63;;;14.65;;
63087;SDS011;49173;43.164;27.786;2022-12-18T11:48:35;22.77;;;14.63;;
63087;SDS011;49173;43.164;27.786;2022-12-18T11:51:09;23.20;;;14.35;;
63087;SDS011;49173;43.164;27.786;2022-12-18T11:53:40;25.77;;;15.48;;
63087;SDS011;49173;43.164;27.786;2022-12-18T11:56:12;27.40;;;15.98;;
63087;SDS011;49173;43.164;27.786;2022-12-18T12:03:59;25.65;;;15.80;;
63087;SDS011;49173;43.164;27.786;2022-12-18T12:12:32;32.65;;;16.67;;
63087;SDS011;49173;43.164;27.786;2022-12-18T12:23:41;30.92;;;17.33;;
63087;SDS011;49173;43.164;27.786;2022-12-18T12:26:30;36.00;;;20.38;;
63087;SDS011;49173;43.164;27.786;2022-12-18T12:34:44;32.40;;;18.65;;
63087;SDS011;49173;43.164;27.786;2022-12-18T12:37:25;33.60;;;19.27;;
63087;SDS011;49173;43.164;27.786;2022-12-18T12:40:03;35.40;;;20.23;;
63087;SDS011;49173;43.164;27.786;2022-12-18T12:42:39;34.70;;;19.75;;
63087;SDS011;49173;43.164;27.786;2022-12-18T12:45:36;35.40;;;19.48;;
63087;SDS011;49173;43.164;27.786;2022-12-18T12:48:07;32.53;;;18.92;;
63087;SDS011;49173;43.164;27.786;2022-12-18T12:50:42;38.38;;;19.70;;
63087;SDS011;49173;43.164;27.786;2022-12-18T12:53:09;29.75;;;18.05;;
63087;SDS011;49173;43.164;27.786;2022-12-18T12:55:46;28.60;;;17.95;;
63087;SDS011;49173;43.164;27.786;2022-12-18T13:03:51;32.58;;;19.52;;
63087;SDS011;49173;43.164;27.786;2022-12-18T13:09:14;38.15;;;19.80;;
63087;SDS011;49173;43.164;27.786;2022-12-18T13:11:40;37.65;;;20.65;;
63087;SDS011;49173;43.164;27.786;2022-12-18T13:14:30;35.75;;;20.58;;
63087;SDS011;49173;43.164;27.786;2022-12-18T13:17:14;27.60;;;16.85;;
63087;SDS011;49173;43.164;27.786;2022-12-18T13:20:20;25.60;;;16.02;;
63087;SDS011;49173;43.164;27.786;2022-12-18T13:22:44;30.65;;;19.05;;
63087;SDS011;49173;43.164;27.786;2022-12-18T13:35:42;26.38;;;13.85;;
63087;SDS011;49173;43.164;27.786;2022-12-18T13:45:59;17.08;;;10.80;;
63087;SDS011;49173;43.164;27.786;2022-12-18T13:48:30;14.23;;;7.18;;
63087;SDS011;49173;43.164;27.786;2022-12-18T13:50:59;12.77;;;7.88;;
63087;SDS011;49173;43.164;27.786;2022-12-18T13:56:42;10.48;;;6.95;;
63087;SDS011;49173;43.164;27.786;2022-12-18T13:59:17;10.80;;;7.00;;
63087;SDS011;49173;43.164;27.786;2022-12-18T14:01:50;9.05;;;6.70;;
63087;SDS011;49173;43.164;27.786;2022-12-18T14:06:46;11.57;;;6.80;;
63087;SDS011;49173;43.164;27.786;2022-12-18T14:09:18;10.77;;;7.75;;
63087;SDS011;49173;43.164;27.786;2022-12-18T14:11:54;11.50;;;7.97;;
63087;SDS011;49173;43.164;27.786;2022-12-18T14:14:42;13.80;;;8.93;;
63087;SDS011;49173;43.164;27.786;2022-12-18T14:17:13;13.68;;;8.10;;
63087;SDS011;49173;43.164;27.786;2022-12-18T14:19:47;18.60;;;9.82;;
63087;SDS011;49173;43.164;27.786;2022-12-18T14:22:16;16.45;;;9.10;;
63087;SDS011;49173;43.164;27.786;2022-12-18T14:24:45;62.35;;;31.35;;
63087;SDS011;49173;43.164;27.786;2022-12-18T14:27:19;52.10;;;27.55;;
63087;SDS011;49173;43.164;27.786;2022-12-18T14:29:48;26.30;;;14.95;;
63087;SDS011;49173;43.164;27.786;2022-12-18T14:32:15;16.35;;;9.65;;
63087;SDS011;49173;43.164;27.786;2022-12-18T14:34:44;29.23;;;17.83;;
63087;SDS011;49173;43.164;27.786;2022-12-18T14:37:11;27.75;;;19.40;;
63087;SDS011;49173;43.164;27.786;2022-12-18T14:39:39;15.30;;;10.20;;
63087;SDS011;49173;43.164;27.786;2022-12-18T14:42:05;13.38;;;9.27;;
63087;SDS011;49173;43.164;27.786;2022-12-18T14:44:31;10.40;;;7.03;;
63087;SDS011;49173;43.164;27.786;2022-12-18T14:46:56;12.07;;;8.20;;
63087;SDS011;49173;43.164;27.786;2022-12-18T14:51:55;13.65;;;7.88;;
63087;SDS011;49173;43.164;27.786;2022-12-18T14:54:23;33.28;;;18.88;;
63087;SDS011;49173;43.164;27.786;2022-12-18T14:59:29;42.35;;;23.23;;
63087;SDS011;49173;43.164;27.786;2022-12-18T15:02:04;21.70;;;12.10;;
63087;SDS011;49173;43.164;27.786;2022-12-18T15:04:37;25.60;;;14.98;;
63087;SDS011;49173;43.164;27.786;2022-12-18T15:09:37;14.55;;;10.02;;
63087;SDS011;49173;43.164;27.786;2022-12-18T15:12:04;11.95;;;8.55;;
63087;SDS011;49173;43.164;27.786;2022-12-18T15:16:57;13.27;;;9.60;;
63087;SDS011;49173;43.164;27.786;2022-12-18T15:19:31;13.70;;;9.57;;
63087;SDS011;49173;43.164;27.786;2022-12-18T15:22:00;11.05;;;7.20;;
63087;SDS011;49173;43.164;27.786;2022-12-18T15:24:27;11.35;;;7.63;;
63087;SDS011;49173;43.164;27.786;2022-12-18T15:26:56;10.13;;;7.03;;
63087;SDS011;49173;43.164;27.786;2022-12-18T15:29:23;9.90;;;6.43;;
63087;SDS011;49173;43.164;27.786;2022-12-18T15:32:03;11.57;;;7.90;;
63087;SDS011;49173;43.164;27.786;2022-12-18T15:34:31;10.48;;;6.97;;
63087;SDS011;49173;43.164;27.786;2022-12-18T15:36:59;12.30;;;7.72;;
63087;SDS011;49173;43.164;27.786;2022-12-18T15:39:25;10.85;;;7.22;;
63087;SDS011;49173;43.164;27.786;2022-12-18T15:41:51;12.07;;;7.28;;
63087;SDS011;49173;43.164;27.786;2022-12-18T15:44:35;12.18;;;7.28;;
63087;SDS011;49173;43.164;27.786;2022-12-18T15:47:02;9.95;;;6.93;;
63087;SDS011;49173;43.164;27.786;2022-12-18T15:49:28;11.88;;;7.47;;
63087;SDS011;49173;43.164;27.786;2022-12-18T15:51:54;11.45;;;7.25;;
63087;SDS011;49173;43.164;27.786;2022-12-18T15:54:23;11.27;;;7.57;;
63087;SDS011;49173;43.164;27.786;2022-12-18T15:57:09;11.98;;;6.82;;
63087;SDS011;49173;43.164;27.786;2022-12-18T15:59:52;10.52;;;7.38;;
63087;SDS011;49173;43.164;27.786;2022-12-18T16:02:24;13.23;;;7.57;;
63087;SDS011;49173;43.164;27.786;2022-12-18T16:04:52;11.90;;;7.28;;
63087;SDS011;49173;43.164;27.786;2022-12-18T16:07:19;11.45;;;6.72;;
63087;SDS011;49173;43.164;27.786;2022-12-18T16:09:45;12.15;;;6.53;;
63087;SDS011;49173;43.164;27.786;2022-12-18T16:12:18;11.50;;;7.20;;
63087;SDS011;49173;43.164;27.786;2022-12-18T16:14:47;12.20;;;7.03;;
63087;SDS011;49173;43.164;27.786;2022-12-18T16:17:13;11.48;;;7.22;;
63087;SDS011;49173;43.164;27.786;2022-12-18T16:19:40;10.07;;;6.85;;
63087;SDS011;49173;43.164;27.786;2022-12-18T16:22:08;13.48;;;7.53;;
63087;SDS011;49173;43.164;27.786;2022-12-18T16:24:44;15.52;;;9.35;;
63087;SDS011;49173;43.164;27.786;2022-12-18T16:27:10;85.50;;;40.72;;
63087;SDS011;49173;43.164;27.786;2022-12-18T16:29:35;51.28;;;25.05;;
63087;SDS011;49173;43.164;27.786;2022-12-18T16:32:01;21.90;;;12.48;;
63087;SDS011;49173;43.164;27.786;2022-12-18T16:34:36;26.30;;;14.13;;
63087;SDS011;49173;43.164;27.786;2022-12-18T16:37:03;14.27;;;10.52;;
63087;SDS011;49173;43.164;27.786;2022-12-18T16:39:31;14.02;;;9.48;;
63087;SDS011;49173;43.164;27.786;2022-12-18T16:41:59;12.93;;;9.60;;
63087;SDS011;49173;43.164;27.786;2022-12-18T16:44:27;16.80;;;11.73;;
63087;SDS011;49173;43.164;27.786;2022-12-18T16:46:52;23.00;;;14.88;;
63087;SDS011;49173;43.164;27.786;2022-12-18T16:49:18;12.02;;;7.72;;